createdAt,value
2023-02-25T00:01:15.032Z,3.56
2023-02-25T00:03:44.556Z,3.56
2023-02-25T00:06:14.650Z,3.54
2023-02-25T00:08:45.413Z,3.58
2023-02-25T00:11:14.877Z,3.61
2023-02-25T00:13:44.472Z,3.62
2023-02-25T00:16:13.993Z,3.71
2023-02-25T00:18:44.466Z,3.73
2023-02-25T00:21:16.053Z,3.67
2023-02-25T00:23:45.596Z,3.74
2023-02-25T00:26:13.926Z,3.76
2023-02-25T00:28:41.962Z,3.78
2023-02-25T00:31:11.900Z,3.75
2023-02-25T00:33:42.041Z,3.75
2023-02-25T00:36:13.035Z,3.73
2023-02-25T00:38:42.163Z,3.71
2023-02-25T00:41:12.612Z,3.68
2023-02-25T00:43:42.292Z,3.73
2023-02-25T00:46:10.650Z,3.64
2023-02-25T00:48:38.956Z,3.61
2023-02-25T00:51:09.018Z,3.64
2023-02-25T00:53:37.846Z,3.55
2023-02-25T00:56:09.448Z,3.54
2023-02-25T00:58:37.573Z,3.57
2023-02-25T01:01:07.018Z,3.54
2023-02-25T01:03:35.022Z,3.56
2023-02-25T01:06:03.000Z,3.53
2023-02-25T01:08:31.006Z,3.50
2023-02-25T01:10:58.829Z,3.49
2023-02-25T01:13:28.025Z,3.52
2023-02-25T01:15:55.847Z,3.53
2023-02-25T01:18:24.266Z,3.51
2023-02-25T01:20:52.066Z,3.55
2023-02-25T01:23:19.849Z,3.58
2023-02-25T01:25:47.561Z,3.60
2023-02-25T01:28:15.366Z,3.65
2023-02-25T01:30:45.657Z,3.62
2023-02-25T01:33:13.459Z,3.71
2023-02-25T01:35:41.222Z,3.70
2023-02-25T01:38:09.001Z,3.76
2023-02-25T01:40:37.846Z,3.72
2023-02-25T01:43:07.748Z,3.72
2023-02-25T01:45:36.713Z,3.78
2023-02-25T01:48:10.858Z,3.76
2023-02-25T01:50:46.155Z,3.77
2023-02-25T01:53:14.272Z,3.77
2023-02-25T01:55:43.566Z,3.74
2023-02-25T01:58:13.681Z,3.69
2023-02-25T02:00:41.955Z,3.78
2023-02-25T02:03:16.070Z,3.76
2023-02-25T02:06:02.398Z,3.72
2023-02-25T02:08:30.785Z,3.72
2023-02-25T02:10:58.962Z,3.72
2023-02-25T02:13:27.224Z,3.71
2023-02-25T02:16:14.464Z,3.68
2023-02-25T02:18:50.251Z,3.70
2023-02-25T02:21:37.092Z,3.72
2023-02-25T02:24:55.335Z,3.75
2023-02-25T02:27:27.349Z,3.77
2023-02-25T02:30:17.331Z,3.81
2023-02-25T02:32:53.636Z,3.80
2023-02-25T02:35:26.340Z,3.80
2023-02-25T02:38:04.344Z,3.83
2023-02-25T02:40:44.623Z,3.82
2023-02-25T02:43:25.622Z,3.81
2023-02-25T02:46:00.436Z,3.84
2023-02-25T02:48:37.535Z,3.80
2023-02-25T02:51:12.952Z,3.81
2023-02-25T02:53:45.373Z,3.75
2023-02-25T02:56:15.860Z,3.80
2023-02-25T02:58:48.027Z,3.69
2023-02-25T03:01:22.149Z,3.79
2023-02-25T03:03:54.347Z,3.79
2023-02-25T03:06:24.833Z,3.82
2023-02-25T03:08:57.712Z,3.85
2023-02-25T03:11:26.949Z,3.85
2023-02-25T03:13:54.745Z,3.72
2023-02-25T03:16:28.976Z,3.60
2023-02-25T03:19:04.437Z,3.48
2023-02-25T03:21:37.521Z,3.49
2023-02-25T03:24:09.894Z,3.52
2023-02-25T03:26:42.792Z,3.49
2023-02-25T03:29:17.984Z,3.47
2023-02-25T03:31:50.217Z,3.51
2023-02-25T03:34:23.956Z,3.45
2023-02-25T03:36:58.023Z,3.46
2023-02-25T03:39:29.137Z,3.43
2023-02-25T03:42:03.692Z,3.39
2023-02-25T03:44:34.310Z,3.40
2023-02-25T03:47:05.740Z,3.38
2023-02-25T03:49:41.573Z,3.35
2023-02-25T03:52:14.841Z,3.41
2023-02-25T03:54:42.649Z,3.39
2023-02-25T03:57:10.719Z,3.44
2023-02-25T03:59:38.489Z,3.44
2023-02-25T04:02:06.838Z,3.37
2023-02-25T04:04:39.023Z,3.36
2023-02-25T04:07:06.799Z,3.40
2023-02-25T04:09:34.607Z,3.36
2023-02-25T04:12:02.354Z,3.36
2023-02-25T04:14:30.108Z,3.41
2023-02-25T04:17:00.827Z,3.43
2023-02-25T04:19:28.674Z,3.39
2023-02-25T04:21:57.813Z,3.35
2023-02-25T04:24:25.589Z,3.32
2023-02-25T04:26:58.344Z,3.32
2023-02-25T04:29:26.641Z,3.34
2023-02-25T04:31:54.772Z,3.32
2023-02-25T04:34:23.061Z,3.32
2023-02-25T04:36:50.828Z,3.32
2023-02-25T04:39:20.165Z,3.30
2023-02-25T04:41:48.000Z,3.34
2023-02-25T04:44:15.758Z,3.34
2023-02-25T04:46:44.169Z,3.32
2023-02-25T04:49:12.262Z,3.25
2023-02-25T04:51:42.509Z,3.37
2023-02-25T04:54:10.265Z,3.37
2023-02-25T04:56:40.284Z,3.36
2023-02-25T04:59:11.369Z,3.41
2023-02-25T05:01:39.318Z,3.43
2023-02-25T05:04:07.683Z,3.39
2023-02-25T05:06:35.788Z,3.34
2023-02-25T05:09:03.948Z,3.30
2023-02-25T05:11:31.738Z,3.33
2023-02-25T05:14:00.916Z,3.35
2023-02-25T05:16:28.772Z,3.32
2023-02-25T05:18:57.026Z,3.30
2023-02-25T05:21:29.369Z,3.29
2023-02-25T05:23:57.210Z,3.25
2023-02-25T05:26:26.310Z,3.25
2023-02-25T05:28:56.125Z,3.21
2023-02-25T05:31:26.178Z,3.25
2023-02-25T05:33:54.511Z,3.21
2023-02-25T05:36:25.291Z,3.22
2023-02-25T05:38:55.157Z,3.15
2023-02-25T05:41:23.285Z,3.17
2023-02-25T05:43:51.066Z,3.14
2023-02-25T05:46:18.823Z,3.14
2023-02-25T05:48:48.901Z,3.14
2023-02-25T05:51:18.938Z,3.13
2023-02-25T05:53:48.047Z,3.11
2023-02-25T05:56:18.711Z,3.14
2023-02-25T05:58:48.433Z,3.09
2023-02-25T06:01:18.085Z,3.10
2023-02-25T06:03:48.904Z,3.12
2023-02-25T06:06:18.162Z,3.04
2023-02-25T06:08:46.011Z,3.07
2023-02-25T06:11:18.303Z,3.11
2023-02-25T06:13:46.124Z,3.09
2023-02-25T06:16:14.661Z,3.04
2023-02-25T06:18:42.592Z,2.98
2023-02-25T06:21:14.182Z,3.01
2023-02-25T06:23:43.626Z,2.94
2023-02-25T06:26:13.155Z,2.92
2023-02-25T06:28:41.214Z,2.88
2023-02-25T06:31:10.356Z,2.92
2023-02-25T06:33:39.275Z,2.91
2023-02-25T06:36:08.002Z,2.88
2023-02-25T06:38:37.581Z,2.89
2023-02-25T06:41:07.537Z,2.91
2023-02-25T06:43:35.752Z,2.91
2023-02-25T06:46:07.838Z,2.83
2023-02-25T06:48:35.925Z,2.82
2023-02-25T06:51:09.049Z,2.87
2023-02-25T06:53:38.766Z,2.87
2023-02-25T06:56:08.263Z,2.89
2023-02-25T06:58:36.504Z,2.86
2023-02-25T07:01:07.375Z,2.94
2023-02-25T07:03:35.257Z,2.95
2023-02-25T07:06:03.055Z,2.97
2023-02-25T07:08:31.048Z,3.00
2023-02-25T07:11:13.411Z,3.03
2023-02-25T07:13:43.879Z,3.11
2023-02-25T07:16:11.811Z,3.14
2023-02-25T07:18:40.578Z,3.14
2023-02-25T07:21:08.624Z,3.11
2023-02-25T07:23:36.486Z,3.11
2023-02-25T07:26:07.177Z,3.11
2023-02-25T07:28:35.648Z,3.17
2023-02-25T07:31:04.492Z,3.21
2023-02-25T07:33:32.651Z,3.23
2023-02-25T07:36:00.377Z,3.29
2023-02-25T07:38:28.235Z,3.31
2023-02-25T07:40:56.625Z,3.39
2023-02-25T07:43:25.903Z,3.44
2023-02-25T07:45:53.741Z,3.47
2023-02-25T07:48:21.494Z,3.47
2023-02-25T07:50:49.344Z,3.48
2023-02-25T07:53:17.285Z,3.51
2023-02-25T07:55:45.662Z,3.53
2023-02-25T07:58:14.082Z,3.58
2023-02-25T08:00:45.789Z,3.58
2023-02-25T08:03:13.709Z,3.62
2023-02-25T08:05:41.458Z,3.61
2023-02-25T08:08:09.238Z,3.68
2023-02-25T08:10:38.299Z,3.73
2023-02-25T08:13:05.997Z,3.77
2023-02-25T08:15:33.775Z,3.85
2023-02-25T08:18:03.503Z,3.86
2023-02-25T08:20:31.263Z,3.95
2023-02-25T08:22:59.157Z,3.97
2023-02-25T08:25:27.145Z,3.92
2023-02-25T08:27:54.968Z,4.05
2023-02-25T08:30:22.895Z,4.13
2023-02-25T08:32:50.769Z,4.20
2023-02-25T08:35:20.153Z,4.41
2023-02-25T08:37:47.946Z,4.48
2023-02-25T08:40:16.889Z,4.61
2023-02-25T08:42:45.794Z,4.71
2023-02-25T08:45:13.886Z,4.74
2023-02-25T08:47:41.642Z,4.81
2023-02-25T08:50:10.933Z,4.93
2023-02-25T08:52:42.349Z,4.99
2023-02-25T08:55:14.882Z,5.06
2023-02-25T08:57:43.186Z,5.17
2023-02-25T09:00:15.167Z,5.14
2023-02-25T09:02:44.889Z,5.16
2023-02-25T09:05:12.697Z,5.20
2023-02-25T09:07:41.817Z,5.16
2023-02-25T09:10:12.760Z,5.19
2023-02-25T09:12:42.253Z,5.10
2023-02-25T09:15:11.248Z,5.10
2023-02-25T09:17:39.101Z,5.16
2023-02-25T09:20:11.187Z,5.06
2023-02-25T09:22:40.159Z,4.89
2023-02-25T09:25:09.599Z,4.81
2023-02-25T09:27:37.492Z,4.79
2023-02-25T09:30:06.268Z,4.66
2023-02-25T09:32:34.219Z,4.62
2023-02-25T09:35:06.987Z,4.64
2023-02-25T09:37:34.890Z,4.64
2023-02-25T09:40:03.883Z,4.60
2023-02-25T09:42:45.533Z,4.69
2023-02-25T09:45:19.968Z,4.61
2023-02-25T09:47:55.095Z,4.68
2023-02-25T09:50:26.668Z,4.74
2023-02-25T09:53:02.800Z,4.78
2023-02-25T09:55:33.794Z,4.78
2023-02-25T09:58:09.900Z,4.80
2023-02-25T10:00:43.969Z,4.86
2023-02-25T10:03:21.849Z,4.98
2023-02-25T10:05:58.103Z,5.05
2023-02-25T10:08:32.499Z,5.11
2023-02-25T10:11:07.300Z,5.27
2023-02-25T10:13:47.225Z,5.50
2023-02-25T10:16:30.166Z,5.59
2023-02-25T10:19:09.156Z,5.61
2023-02-25T10:21:52.022Z,5.72
2023-02-25T10:24:30.011Z,5.92
2023-02-25T10:27:04.059Z,5.85
2023-02-25T10:29:39.896Z,5.55
2023-02-25T10:32:18.462Z,5.35
2023-02-25T10:34:46.778Z,5.32
2023-02-25T10:37:22.478Z,5.28
2023-02-25T10:39:55.616Z,5.33
2023-02-25T10:42:23.542Z,5.37
2023-02-25T10:44:53.816Z,5.43
2023-02-25T10:47:30.226Z,5.55
2023-02-25T10:50:27.544Z,5.63
2023-02-25T10:53:04.197Z,5.61
2023-02-25T10:55:51.430Z,5.51
2023-02-25T10:58:31.999Z,5.48
2023-02-25T11:01:04.742Z,5.62
2023-02-25T11:03:36.430Z,5.65
2023-02-25T11:06:22.733Z,5.69
2023-02-25T11:08:52.245Z,5.68
2023-02-25T11:11:23.177Z,5.78
2023-02-25T11:14:03.205Z,6.08
2023-02-25T11:16:36.506Z,6.15
2023-02-25T11:19:15.022Z,6.35
2023-02-25T11:21:43.378Z,6.47
2023-02-25T11:24:16.061Z,6.59
2023-02-25T11:26:46.318Z,6.71
2023-02-25T11:29:18.698Z,6.66
2023-02-25T11:31:52.118Z,6.51
2023-02-25T11:34:23.780Z,6.56
2023-02-25T11:36:59.936Z,6.61
2023-02-25T11:39:30.894Z,6.75
2023-02-25T11:42:02.839Z,6.98
2023-02-25T11:44:40.950Z,6.84
2023-02-25T11:47:23.057Z,6.93
2023-02-25T11:50:05.344Z,6.56
2023-02-25T11:52:40.331Z,6.29
2023-02-25T11:55:19.385Z,5.89
2023-02-25T11:57:58.615Z,5.26
2023-02-25T12:00:33.408Z,4.82
2023-02-25T12:03:28.444Z,4.73
2023-02-25T12:06:25.422Z,4.75
2023-02-25T12:09:29.260Z,4.89
2023-02-25T12:12:26.569Z,4.96
2023-02-25T12:15:36.163Z,5.03
2023-02-25T12:18:50.259Z,4.97
2023-02-25T12:21:57.433Z,5.10
2023-02-25T12:24:46.280Z,5.25
2023-02-25T12:27:47.704Z,5.21
2023-02-25T12:30:50.617Z,5.55
2023-02-25T12:33:43.860Z,5.77
2023-02-25T12:39:47.985Z,5.89
2023-02-25T12:42:40.010Z,5.92
2023-02-25T12:45:24.573Z,5.98
2023-02-25T12:48:10.014Z,5.97
2023-02-25T12:50:57.329Z,5.93
2023-02-25T12:53:45.353Z,5.97
2023-02-25T12:56:53.404Z,6.15
2023-02-25T12:59:39.661Z,6.14
2023-02-25T13:02:28.829Z,6.23
2023-02-25T13:05:22.530Z,6.34
2023-02-25T13:08:10.544Z,6.39
2023-02-25T13:11:00.089Z,6.23
2023-02-25T13:14:22.262Z,6.08
2023-02-25T13:17:22.297Z,6.03
2023-02-25T13:20:18.708Z,6.16
2023-02-25T13:23:04.255Z,6.40
2023-02-25T13:25:48.082Z,6.48
2023-02-25T13:28:27.496Z,6.42
2023-02-25T13:31:00.361Z,6.34
2023-02-25T13:33:46.380Z,6.43
2023-02-25T13:36:34.304Z,6.52
2023-02-25T13:39:23.711Z,6.59
2023-02-25T13:42:10.143Z,6.56
2023-02-25T13:44:51.606Z,6.48
2023-02-25T13:47:38.976Z,6.35
2023-02-25T13:50:32.906Z,6.22
2023-02-25T13:53:13.213Z,6.21
2023-02-25T13:56:00.621Z,6.19
2023-02-25T13:58:45.976Z,6.24
2023-02-25T14:01:45.280Z,6.33
2023-02-25T14:04:46.199Z,6.26
2023-02-25T14:07:46.880Z,6.12
2023-02-25T14:10:30.474Z,6.11
2023-02-25T14:13:26.807Z,6.19
2023-02-25T14:16:07.372Z,6.20
2023-02-25T14:18:54.062Z,6.17
2023-02-25T14:21:51.781Z,6.15
2023-02-25T14:24:28.967Z,6.07
2023-02-25T14:27:12.500Z,5.99
2023-02-25T14:29:54.872Z,6.02
2023-02-25T14:32:39.567Z,5.99
2023-02-25T14:35:22.613Z,6.02
2023-02-25T14:38:00.786Z,6.02
2023-02-25T14:40:41.170Z,5.93
2023-02-25T14:43:32.269Z,5.98
2023-02-25T14:46:10.785Z,6.01
2023-02-25T14:48:45.591Z,5.85
2023-02-25T14:51:50.118Z,5.84
2023-02-25T14:54:49.187Z,5.76
2023-02-25T14:57:41.482Z,5.58
2023-02-25T15:00:30.237Z,5.50
2023-02-25T15:03:29.723Z,5.51
2023-02-25T15:06:15.271Z,5.49
2023-02-25T15:09:19.207Z,5.65
2023-02-25T15:12:07.022Z,5.63
2023-02-25T15:14:49.283Z,5.37
2023-02-25T15:17:55.863Z,5.29
2023-02-25T15:20:39.046Z,5.29
2023-02-25T15:23:37.152Z,5.29
2023-02-25T15:26:22.692Z,5.29
2023-02-25T15:28:51.322Z,5.34
2023-02-25T15:31:30.967Z,5.26
2023-02-25T15:34:32.780Z,5.24
2023-02-25T15:37:30.182Z,5.19
2023-02-25T15:40:00.186Z,5.21
2023-02-25T15:42:56.689Z,5.22
2023-02-25T15:45:42.215Z,5.14
2023-02-25T15:48:34.028Z,5.01
2023-02-25T15:51:04.103Z,5.11
2023-02-25T15:53:46.154Z,5.14
2023-02-25T15:56:49.370Z,5.02
2023-02-25T15:59:42.228Z,5.00
2023-02-25T16:02:33.375Z,4.87
2023-02-25T16:05:02.834Z,4.85
2023-02-25T16:07:35.208Z,4.74
2023-02-25T16:10:10.461Z,4.73
2023-02-25T16:12:39.294Z,4.63
2023-02-25T16:15:08.505Z,4.62
2023-02-25T16:17:37.248Z,4.59
2023-02-25T16:20:18.081Z,4.70
2023-02-25T16:22:48.725Z,4.69
2023-02-25T16:25:25.195Z,4.68
2023-02-25T16:28:02.380Z,4.62
2023-02-25T16:30:41.466Z,4.61
2023-02-25T16:33:20.535Z,4.56
2023-02-25T16:36:02.652Z,4.53
2023-02-25T16:38:42.538Z,4.48
2023-02-25T16:41:14.251Z,4.49
2023-02-25T16:43:43.940Z,4.48
2023-02-25T16:46:14.979Z,4.47
2023-02-25T16:48:50.265Z,4.43
2023-02-25T16:51:25.452Z,4.48
2023-02-25T16:53:57.934Z,4.36
2023-02-25T16:56:29.789Z,4.34
2023-02-25T16:59:05.940Z,4.35
2023-02-25T17:01:36.451Z,4.28
2023-02-25T17:04:15.417Z,4.34
2023-02-25T17:06:43.887Z,4.18
2023-02-25T17:09:24.614Z,4.12
2023-02-25T17:11:56.685Z,4.14
2023-02-25T17:14:26.256Z,4.08
2023-02-25T17:16:54.432Z,4.06
2023-02-25T17:19:24.654Z,4.05
2023-02-25T17:21:55.050Z,4.00
2023-02-25T17:24:28.436Z,3.97
2023-02-25T17:26:58.284Z,3.95
2023-02-25T17:29:34.952Z,3.89
2023-02-25T17:32:14.906Z,3.83
2023-02-25T17:34:43.385Z,3.78
2023-02-25T17:37:13.990Z,3.77
2023-02-25T17:39:44.231Z,3.77
2023-02-25T17:42:35.514Z,3.68
2023-02-25T17:45:07.214Z,3.60
2023-02-25T17:47:38.087Z,3.53
2023-02-25T17:50:23.013Z,3.46
2023-02-25T17:52:51.607Z,3.43
2023-02-25T17:55:25.484Z,3.41
2023-02-25T17:57:57.156Z,3.37
2023-02-25T18:00:27.477Z,3.32
2023-02-25T18:03:13.165Z,3.29
2023-02-25T18:05:51.295Z,3.31
2023-02-25T18:08:21.806Z,3.32
2023-02-25T18:10:55.124Z,3.30
2023-02-25T18:13:29.177Z,3.29
2023-02-25T18:16:38.486Z,3.23
2023-02-25T18:19:34.122Z,3.19
2023-02-25T18:22:01.955Z,3.18
2023-02-25T18:24:33.123Z,3.19
2023-02-25T18:27:03.729Z,3.20
2023-02-25T18:29:33.856Z,3.19
2023-02-25T18:32:01.873Z,3.19
2023-02-25T18:34:30.418Z,3.08
2023-02-25T18:36:58.223Z,3.08
2023-02-25T18:39:27.640Z,3.07
2023-02-25T18:41:57.972Z,3.05
2023-02-25T18:44:25.716Z,3.04
2023-02-25T18:46:54.868Z,2.97
2023-02-25T18:49:22.723Z,2.94
2023-02-25T18:51:52.426Z,2.89
2023-02-25T18:54:20.192Z,2.86
2023-02-25T18:56:48.165Z,2.86
2023-02-25T18:59:15.941Z,2.87
2023-02-25T19:01:45.277Z,2.81
2023-02-25T19:04:17.575Z,2.80
2023-02-25T19:06:46.720Z,2.81
2023-02-25T19:09:14.889Z,2.81
2023-02-25T19:11:45.507Z,2.81
2023-02-25T19:14:19.697Z,2.77
2023-02-25T19:16:47.462Z,2.71
2023-02-25T19:19:17.322Z,2.68
2023-02-25T19:21:45.121Z,2.63
2023-02-25T19:24:13.207Z,2.64
2023-02-25T19:26:41.710Z,2.65
2023-02-25T19:29:09.575Z,2.64
2023-02-25T19:31:37.628Z,2.64
2023-02-25T19:34:05.403Z,2.60
2023-02-25T19:36:36.628Z,2.59
2023-02-25T19:39:05.570Z,2.56
2023-02-25T19:41:34.104Z,2.54
2023-02-25T19:44:01.907Z,2.47
2023-02-25T19:46:29.675Z,2.44
2023-02-25T19:48:58.005Z,2.38
2023-02-25T19:51:25.766Z,2.37
2023-02-25T19:53:54.911Z,2.35
2023-02-25T19:56:23.617Z,2.34
2023-02-25T19:58:51.641Z,2.33
2023-02-25T20:01:19.454Z,2.30
2023-02-25T20:03:47.677Z,2.28
2023-02-25T20:06:15.716Z,2.28
2023-02-25T20:08:45.801Z,2.26
2023-02-25T20:11:14.961Z,2.26
2023-02-25T20:13:42.832Z,2.23
2023-02-25T20:16:10.615Z,2.21
2023-02-25T20:18:38.878Z,2.22
2023-02-25T20:21:07.314Z,2.22
2023-02-25T20:23:35.400Z,2.24
2023-02-25T20:26:05.060Z,2.21
2023-02-25T20:28:34.456Z,2.20
2023-02-25T20:31:07.525Z,2.14
2023-02-25T20:33:36.341Z,2.14
2023-02-25T20:36:18.168Z,2.10
2023-02-25T20:39:05.322Z,2.08
2023-02-25T20:41:33.347Z,2.09
2023-02-25T20:44:02.712Z,2.05
2023-02-25T20:46:30.704Z,2.02
2023-02-25T20:48:58.739Z,2.01
2023-02-25T20:51:26.921Z,2.01
2023-02-25T20:53:55.330Z,2.02
2023-02-25T20:56:25.742Z,2.01
2023-02-25T20:58:54.842Z,2.00
2023-02-25T21:01:24.216Z,1.97
2023-02-25T21:03:52.096Z,1.89
2023-02-25T21:06:22.795Z,1.87
2023-02-25T21:08:51.669Z,1.84
2023-02-25T21:11:19.523Z,1.84
2023-02-25T21:13:47.658Z,1.83
2023-02-25T21:16:16.980Z,1.84
2023-02-25T21:18:46.948Z,1.79
2023-02-25T21:21:16.875Z,1.72
2023-02-25T21:23:45.068Z,1.72
2023-02-25T21:26:13.708Z,1.74
2023-02-25T21:28:42.110Z,1.74
2023-02-25T21:31:13.154Z,1.74
2023-02-25T21:33:41.301Z,1.72
2023-02-25T21:36:12.023Z,1.72
2023-02-25T21:38:40.432Z,1.71
2023-02-25T21:41:09.863Z,1.69
2023-02-25T21:43:38.135Z,1.68
2023-02-25T21:46:07.732Z,1.66
2023-02-25T21:48:35.519Z,1.60
2023-02-25T21:51:03.572Z,1.61
2023-02-25T21:53:32.853Z,1.60
2023-02-25T21:56:10.170Z,1.57
2023-02-25T21:58:38.125Z,1.56
2023-02-25T22:01:14.027Z,1.54
2023-02-25T22:03:42.301Z,1.53
2023-02-25T22:06:10.779Z,1.53
2023-02-25T22:08:40.896Z,1.50
2023-02-25T22:11:12.604Z,1.49
2023-02-25T22:13:40.494Z,1.48
2023-02-25T22:16:08.571Z,1.45
2023-02-25T22:18:36.906Z,1.43
2023-02-25T22:21:06.493Z,1.43
2023-02-25T22:23:34.298Z,1.36
2023-02-25T22:26:05.142Z,1.36
2023-02-25T22:28:33.319Z,1.34
2023-02-25T22:31:01.225Z,1.36
2023-02-25T22:33:29.500Z,1.35
2023-02-25T22:35:59.033Z,1.37
2023-02-25T22:38:29.178Z,1.38
2023-02-25T22:40:56.966Z,1.39
2023-02-25T22:43:26.128Z,1.38
2023-02-25T22:45:53.980Z,1.38
2023-02-25T22:48:21.719Z,1.37
2023-02-25T22:50:50.606Z,1.36
2023-02-25T22:53:18.399Z,1.34
2023-02-25T22:55:46.232Z,1.32
2023-02-25T22:58:13.987Z,1.31
2023-02-25T23:00:44.414Z,1.27
2023-02-25T23:03:12.348Z,1.26
2023-02-25T23:05:42.198Z,1.23
2023-02-25T23:08:09.980Z,1.19
2023-02-25T23:10:37.755Z,1.15
2023-02-25T23:13:08.064Z,1.14
2023-02-25T23:15:36.994Z,1.11
2023-02-25T23:18:08.640Z,1.08
2023-02-25T23:20:38.862Z,1.06
2023-02-25T23:23:09.408Z,1.02
2023-02-25T23:25:39.145Z,1.01
2023-02-25T23:28:08.806Z,1.00
2023-02-25T23:30:38.712Z,0.99
2023-02-25T23:33:07.845Z,0.97
2023-02-25T23:35:36.971Z,0.98
2023-02-25T23:38:04.681Z,0.97
2023-02-25T23:40:33.082Z,0.95
2023-02-25T23:43:00.870Z,0.96
2023-02-25T23:45:28.789Z,0.94
2023-02-25T23:47:56.962Z,0.94
2023-02-25T23:50:26.935Z,0.92
2023-02-25T23:52:55.348Z,0.90
2023-02-25T23:55:23.104Z,0.90
2023-02-25T23:57:50.939Z,0.88
